Time;durP1;ratioP1;P1;durP2;ratioP2;P2;SDS_P1;SDS_P2;PMS_P1;PMS_P2;Temp;Humidity;BMP_temperature;BMP_pressure;BME280_temperature;BME280_humidity;BME280_pressure;Samples;Min_cycle;Max_cycle;Signal;HPM_P1;HPM_P2
2022/08/18 00:24:09;;;;;;;78.68;69.78;;;;;;;;;;5074979;28;20094;-64
2022/08/18 00:26:35;;;;;;;81.18;71.78;;;;;;;;;;5074617;28;20028;-64
2022/08/18 00:29:01;;;;;;;81.55;72.55;;;;;;;;;;5074002;28;20027;-63
2022/08/18 00:31:28;;;;;;;81.40;72.47;;;;;;;;;;5074585;28;20068;-64
2022/08/18 00:33:54;;;;;;;85.45;76.10;;;;;;;;;;5075165;28;20013;-64
2022/08/18 00:36:20;;;;;;;81.90;72.50;;;;;;;;;;5074747;28;20016;-64
2022/08/18 00:38:46;;;;;;;86.50;75.70;;;;;;;;;;5073804;28;20534;-64
2022/08/18 00:41:12;;;;;;;79.32;70.80;;;;;;;;;;5074424;28;20033;-65
2022/08/18 00:43:46;;;;;;;87.95;76.43;;;;;;;;;;5074644;28;20031;-64
2022/08/18 00:46:17;;;;;;;89.00;76.45;;;;;;;;;;5074339;28;20028;-64
2022/08/18 00:48:43;;;;;;;84.53;73.00;;;;;;;;;;5073546;28;20108;-64
2022/08/18 00:51:16;;;;;;;89.95;78.07;;;;;;;;;;5072769;28;20037;-64
2022/08/18 00:54:01;;;;;;;83.95;74.63;;;;;;;;;;5074158;28;20063;-64
2022/08/18 00:56:35;;;;;;;83.82;74.35;;;;;;;;;;5072847;28;20025;-64
2022/08/18 00:59:12;;;;;;;87.85;77.25;;;;;;;;;;5073404;28;20392;-64
2022/08/18 01:01:39;;;;;;;90.05;77.97;;;;;;;;;;5072755;28;20381;-64
2022/08/18 01:04:08;;;;;;;99.47;82.15;;;;;;;;;;5073832;28;20116;-63
2022/08/18 01:06:46;;;;;;;102.63;86.68;;;;;;;;;;5073969;28;20013;-63
2022/08/18 01:09:12;;;;;;;100.70;84.40;;;;;;;;;;5073107;28;20070;-64
2022/08/18 01:11:38;;;;;;;102.75;83.38;;;;;;;;;;5073593;28;20472;-64
2022/08/18 01:14:06;;;;;;;106.53;85.88;;;;;;;;;;5073784;28;20074;-64
2022/08/18 01:22:18;;;;;;;113.43;89.32;;;;;;;;;;5073643;28;20469;-62
2022/08/18 01:27:30;;;;;;;116.32;94.20;;;;;;;;;;5072792;28;20447;-63
2022/08/18 01:29:57;;;;;;;115.00;92.13;;;;;;;;;;5073454;28;20044;-64
2022/08/18 01:32:24;;;;;;;119.57;91.38;;;;;;;;;;5073265;28;20074;-64
2022/08/18 01:34:51;;;;;;;118.78;90.38;;;;;;;;;;5073354;28;20024;-62
2022/08/18 01:37:18;;;;;;;120.38;94.22;;;;;;;;;;5071382;28;20044;-63
2022/08/18 01:39:45;;;;;;;122.03;95.10;;;;;;;;;;5073318;28;20134;-64
2022/08/18 01:42:11;;;;;;;121.25;97.25;;;;;;;;;;5071976;28;20051;-64
2022/08/18 01:44:40;;;;;;;122.20;93.93;;;;;;;;;;5073232;28;20032;-64
2022/08/18 01:47:06;;;;;;;;;;;;;;;;;;5073505;28;20028;-63
2022/08/18 01:49:32;;;;;;;111.70;83.82;;;;;;;;;;5072510;28;19908;-64
2022/08/18 01:51:58;;;;;;;113.03;84.15;;;;;;;;;;5073249;28;20024;-64
2022/08/18 01:54:29;;;;;;;115.68;89.75;;;;;;;;;;5071960;28;20093;-64
2022/08/18 01:56:55;;;;;;;110.95;84.55;;;;;;;;;;5071737;28;20025;-64
2022/08/18 01:59:21;;;;;;;101.10;79.25;;;;;;;;;;5072158;28;20027;-64
2022/08/18 02:01:47;;;;;;;99.32;79.03;;;;;;;;;;5072674;28;20031;-64
2022/08/18 02:04:15;;;;;;;97.20;78.10;;;;;;;;;;5071638;28;20025;-64
2022/08/18 02:06:41;;;;;;;99.47;76.97;;;;;;;;;;5072731;28;20033;-64
2022/08/18 02:09:07;;;;;;;98.40;79.70;;;;;;;;;;5071896;28;20374;-64
2022/08/18 02:11:33;;;;;;;94.43;75.35;;;;;;;;;;5072514;28;20103;-63
2022/08/18 02:13:59;;;;;;;99.68;74.30;;;;;;;;;;5072717;28;20119;-64
2022/08/18 02:16:25;;;;;;;89.38;70.90;;;;;;;;;;5071334;28;20020;-64
2022/08/18 02:18:52;;;;;;;88.40;70.25;;;;;;;;;;5071751;28;20020;-65
2022/08/18 02:21:19;;;;;;;84.63;68.47;;;;;;;;;;5072384;28;20043;-63
2022/08/18 02:23:46;;;;;;;87.65;71.57;;;;;;;;;;5071340;28;20698;-63
2022/08/18 02:26:15;;;;;;;91.88;70.82;;;;;;;;;;5072386;28;20027;-64
2022/08/18 02:28:42;;;;;;;94.25;75.32;;;;;;;;;;5071622;28;20021;-64
2022/08/18 02:31:10;;;;;;;90.85;71.55;;;;;;;;;;5072145;28;20133;-64
2022/08/18 02:33:36;;;;;;;84.90;71.30;;;;;;;;;;5070989;28;20136;-64
2022/08/18 02:36:02;;;;;;;89.70;68.90;;;;;;;;;;5072309;28;20113;-63
2022/08/18 02:38:29;;;;;;;90.45;72.32;;;;;;;;;;5071463;28;20060;-64
2022/08/18 02:40:59;;;;;;;85.70;69.35;;;;;;;;;;5072243;28;20127;-63
2022/08/18 02:43:25;;;;;;;83.25;67.78;;;;;;;;;;5071979;28;20025;-63
2022/08/18 02:45:51;;;;;;;86.43;70.00;;;;;;;;;;5072359;28;20035;-63
2022/08/18 02:48:33;;;;;;;85.47;69.93;;;;;;;;;;5072066;28;20374;-63
2022/08/18 02:51:00;;;;;;;95.20;74.00;;;;;;;;;;5072107;28;20081;-64
2022/08/18 02:53:27;;;;;;;90.10;72.50;;;;;;;;;;5072092;28;20078;-64
2022/08/18 02:55:53;;;;;;;91.82;72.72;;;;;;;;;;5071349;28;20085;-64
2022/08/18 02:58:20;;;;;;;96.05;73.72;;;;;;;;;;5072084;28;20116;-64
2022/08/18 03:00:46;;;;;;;92.72;72.47;;;;;;;;;;5073506;28;20017;-64
2022/08/18 03:03:12;;;;;;;91.80;75.20;;;;;;;;;;5074262;28;20051;-64
2022/08/18 03:05:38;;;;;;;90.10;72.18;;;;;;;;;;5074252;28;20400;-63
2022/08/18 03:08:04;;;;;;;90.35;72.22;;;;;;;;;;5073917;28;20025;-64
2022/08/18 03:10:30;;;;;;;83.38;71.15;;;;;;;;;;5074073;28;20028;-64
2022/08/18 03:12:56;;;;;;;91.25;74.15;;;;;;;;;;5072912;28;20102;-64
2022/08/18 03:15:22;;;;;;;89.65;68.10;;;;;;;;;;5072847;28;20025;-63
2022/08/18 03:17:49;;;;;;;91.28;75.30;;;;;;;;;;5071028;28;20017;-64
2022/08/18 03:20:15;;;;;;;93.05;72.50;;;;;;;;;;5071563;28;20108;-63
2022/08/18 03:22:41;;;;;;;84.68;69.13;;;;;;;;;;5071614;28;20028;-63
2022/08/18 03:25:08;;;;;;;83.07;70.32;;;;;;;;;;5071690;28;20020;-64
2022/08/18 03:27:34;;;;;;;92.00;70.88;;;;;;;;;;5069344;28;20025;-64
2022/08/18 03:30:02;;;;;;;82.60;68.47;;;;;;;;;;5071606;28;20387;-63
2022/08/18 03:32:27;;;;;;;84.90;67.50;;;;;;;;;;5071607;28;20028;-64
2022/08/18 03:34:54;;;;;;;87.22;72.13;;;;;;;;;;5071961;28;20270;-65
2022/08/18 03:37:20;;;;;;;93.57;74.90;;;;;;;;;;5071031;28;20031;-65
2022/08/18 03:39:46;;;;;;;96.57;74.82;;;;;;;;;;5071425;28;20027;-64
2022/08/18 03:42:12;;;;;;;95.47;73.13;;;;;;;;;;5071177;28;20020;-63
2022/08/18 03:44:38;;;;;;;92.72;71.07;;;;;;;;;;5071297;28;20086;-63
2022/08/18 03:47:09;;;;;;;91.45;70.22;;;;;;;;;;5071440;28;20401;-63
2022/08/18 03:49:35;;;;;;;84.43;69.05;;;;;;;;;;5071254;28;20025;-63
2022/08/18 03:52:01;;;;;;;88.25;69.70;;;;;;;;;;5071210;28;20032;-63
2022/08/18 03:54:28;;;;;;;88.53;70.55;;;;;;;;;;5071020;28;20020;-66
2022/08/18 03:56:54;;;;;;;88.43;72.43;;;;;;;;;;5075248;28;20468;-64
2022/08/18 03:59:22;;;;;;;87.28;69.03;;;;;;;;;;5074286;28;20054;-64
2022/08/18 04:01:49;;;;;;;86.13;69.38;;;;;;;;;;5075096;28;20029;-64
2022/08/18 04:04:17;;;;;;;83.47;67.45;;;;;;;;;;5074955;28;20040;-62
2022/08/18 04:06:48;;;;;;;83.95;66.57;;;;;;;;;;5075085;28;20028;-63
2022/08/18 04:09:15;;;;;;;83.78;69.38;;;;;;;;;;5074207;28;20024;-62
2022/08/18 04:11:42;;;;;;;88.53;69.80;;;;;;;;;;5074910;28;20096;-64
2022/08/18 04:14:08;;;;;;;83.28;67.75;;;;;;;;;;5074768;28;20124;-64
2022/08/18 04:16:35;;;;;;;87.20;69.80;;;;;;;;;;5074874;28;20040;-63
2022/08/18 04:19:02;;;;;;;90.38;72.35;;;;;;;;;;5073980;28;20078;-64
2022/08/18 04:21:32;;;;;;;87.97;70.60;;;;;;;;;;5073782;28;20021;-64
2022/08/18 04:24:03;;;;;;;89.20;72.88;;;;;;;;;;5075135;28;20471;-65
2022/08/18 04:26:33;;;;;;;94.32;76.53;;;;;;;;;;5073448;28;20108;-64
2022/08/18 04:29:00;;;;;;;90.60;75.15;;;;;;;;;;5073880;28;20055;-66
2022/08/18 04:31:27;;;;;;;90.47;73.75;;;;;;;;;;5073616;28;20020;-64
2022/08/18 04:33:53;;;;;;;88.15;74.90;;;;;;;;;;5075050;28;20120;-66
2022/08/18 04:36:19;;;;;;;89.25;72.35;;;;;;;;;;5074551;28;20032;-65
2022/08/18 04:38:45;;;;;;;94.90;76.10;;;;;;;;;;5073637;28;20021;-65
2022/08/18 04:41:12;;;;;;;88.75;70.47;;;;;;;;;;5074168;28;20063;-65
2022/08/18 04:43:39;;;;;;;96.40;75.38;;;;;;;;;;5074237;28;20469;-65
2022/08/18 04:46:05;;;;;;;95.78;75.80;;;;;;;;;;5069275;28;20036;-59
2022/08/18 04:48:33;;;;;;;97.57;75.50;;;;;;;;;;5061527;28;20500;-61
2022/08/18 04:51:05;;;;;;;97.03;76.13;;;;;;;;;;5071666;28;20479;-60
2022/08/18 04:53:43;;;;;;;98.63;75.13;;;;;;;;;;5070769;28;20110;-61
2022/08/18 04:56:13;;;;;;;101.95;79.88;;;;;;;;;;5054486;28;20397;-61
2022/08/18 04:58:39;;;;;;;102.75;78.82;;;;;;;;;;5053552;28;20061;-60
2022/08/18 05:01:05;;;;;;;110.07;81.68;;;;;;;;;;5054190;28;20086;-63
2022/08/18 05:03:31;;;;;;;99.18;76.13;;;;;;;;;;5070262;28;20032;-61
2022/08/18 05:05:58;;;;;;;109.88;82.43;;;;;;;;;;5073626;28;20024;-61
2022/08/18 05:08:25;;;;;;;105.28;77.50;;;;;;;;;;5073491;28;20028;-56
2022/08/18 05:10:56;;;;;;;107.65;79.20;;;;;;;;;;5073748;28;20025;-60
2022/08/18 05:13:22;;;;;;;109.63;80.15;;;;;;;;;;5074086;28;20522;-63
2022/08/18 05:16:02;;;;;;;111.75;80.47;;;;;;;;;;5073960;28;20029;-60
2022/08/18 05:18:29;;;;;;;108.10;80.82;;;;;;;;;;5073549;28;20426;-63
2022/08/18 05:20:56;;;;;;;105.25;77.47;;;;;;;;;;5055292;28;20343;-60
2022/08/18 05:23:22;;;;;;;107.30;78.75;;;;;;;;;;5053530;28;20059;-62
2022/08/18 05:25:48;;;;;;;110.57;79.63;;;;;;;;;;5053613;28;20057;-59
2022/08/18 05:28:14;;;;;;;115.05;80.53;;;;;;;;;;5053124;28;20447;-63
2022/08/18 05:30:41;;;;;;;97.15;74.82;;;;;;;;;;5053262;28;20400;-62
2022/08/18 05:33:09;;;;;;;105.07;79.85;;;;;;;;;;5053172;28;20074;-61
2022/08/18 05:35:47;;;;;;;96.75;75.32;;;;;;;;;;5053134;28;20090;-61
2022/08/18 05:38:31;;;;;;;107.85;78.95;;;;;;;;;;5052522;28;20094;-62
2022/08/18 05:41:03;;;;;;;107.18;77.53;;;;;;;;;;5051846;28;20036;-62
2022/08/18 05:43:30;;;;;;;106.97;79.20;;;;;;;;;;5053808;28;20167;-63
2022/08/18 05:45:56;;;;;;;102.15;79.15;;;;;;;;;;5052917;28;20018;-63
2022/08/18 05:48:22;;;;;;;101.20;79.50;;;;;;;;;;5052153;28;20356;-60
2022/08/18 05:50:48;;;;;;;112.60;78.95;;;;;;;;;;5054490;28;20048;-61
2022/08/18 05:53:17;;;;;;;108.32;80.90;;;;;;;;;;5056212;28;20033;-61
2022/08/18 05:58:31;;;;;;;116.97;85.32;;;;;;;;;;5058613;28;20032;-63
2022/08/18 06:01:01;;;;;;;120.15;81.22;;;;;;;;;;5055269;28;20021;-63
2022/08/18 06:03:34;;;;;;;113.63;83.57;;;;;;;;;;5054164;28;20021;-62
2022/08/18 06:06:01;;;;;;;111.85;81.97;;;;;;;;;;5053720;28;20100;-62
2022/08/18 06:08:40;;;;;;;124.68;86.75;;;;;;;;;;5052618;28;20408;-63
2022/08/18 06:11:06;;;;;;;122.63;83.88;;;;;;;;;;5051570;28;20397;-61
2022/08/18 06:13:36;;;;;;;118.00;83.63;;;;;;;;;;5053136;28;20029;-62
2022/08/18 06:16:08;;;;;;;121.47;84.68;;;;;;;;;;5051710;28;20366;-63
2022/08/18 06:18:37;;;;;;;120.72;84.00;;;;;;;;;;5050284;28;20079;-66
2022/08/18 06:21:13;;;;;;;116.40;79.70;;;;;;;;;;5067595;28;20021;-64
2022/08/18 06:23:47;;;;;;;113.47;77.75;;;;;;;;;;5073011;28;20086;-63
2022/08/18 06:26:23;;;;;;;113.50;75.60;;;;;;;;;;5072274;28;20033;-64
2022/08/18 06:29:09;;;;;;;116.47;81.50;;;;;;;;;;5071725;28;20172;-67
2022/08/18 06:31:56;;;;;;;117.65;82.00;;;;;;;;;;5075695;28;20111;-65
2022/08/18 06:34:41;;;;;;;115.93;77.05;;;;;;;;;;5041002;28;20477;-65
2022/08/18 06:37:10;;;;;;;117.80;81.32;;;;;;;;;;5071968;28;20043;-65
2022/08/18 06:39:44;;;;;;;114.15;79.32;;;;;;;;;;5071971;28;20075;-64
2022/08/18 06:42:10;;;;;;;117.90;80.65;;;;;;;;;;5070885;28;20485;-64
2022/08/18 06:44:44;;;;;;;107.95;76.03;;;;;;;;;;5072116;28;20035;-63
2022/08/18 06:47:17;;;;;;;103.28;75.40;;;;;;;;;;5071683;28;20025;-65
2022/08/18 06:49:49;;;;;;;103.05;73.15;;;;;;;;;;5072106;28;20408;-64
2022/08/18 06:52:24;;;;;;;101.07;73.38;;;;;;;;;;5072459;28;20507;-64
2022/08/18 06:54:51;;;;;;;97.93;71.78;;;;;;;;;;5071941;28;20024;-65
2022/08/18 06:57:33;;;;;;;106.63;74.78;;;;;;;;;;5071519;28;20393;-65
2022/08/18 07:00:01;;;;;;;95.18;69.00;;;;;;;;;;5071989;28;20017;-64
2022/08/18 07:02:38;;;;;;;91.55;69.80;;;;;;;;;;5072188;28;20024;-64
2022/08/18 07:05:18;;;;;;;96.15;70.95;;;;;;;;;;5072028;28;20271;-64
2022/08/18 07:07:44;;;;;;;92.32;69.93;;;;;;;;;;5071360;28;20504;-64
2022/08/18 07:10:12;;;;;;;91.60;69.65;;;;;;;;;;5071993;28;20138;-64
2022/08/18 07:12:39;;;;;;;92.82;70.60;;;;;;;;;;5072013;28;20024;-65
2022/08/18 07:15:06;;;;;;;92.15;65.97;;;;;;;;;;5072084;28;20021;-65
2022/08/18 07:17:34;;;;;;;88.45;67.90;;;;;;;;;;5071378;28;20477;-64
2022/08/18 07:20:00;;;;;;;;;;;;;;;;;;5072236;28;20478;-64
2022/08/18 07:22:27;;;;;;;78.45;59.58;;;;;;;;;;5071863;28;20342;-65
2022/08/18 07:24:54;;;;;;;79.93;61.90;;;;;;;;;;5070796;28;20063;-64
2022/08/18 07:27:22;;;;;;;77.88;62.38;;;;;;;;;;5069762;28;20086;-65
2022/08/18 07:30:04;;;;;;;81.00;62.57;;;;;;;;;;5075293;28;20024;-64
2022/08/18 07:32:40;;;;;;;77.85;63.88;;;;;;;;;;5075780;28;20369;-64
2022/08/18 07:35:08;;;;;;;83.80;62.25;;;;;;;;;;5075850;28;20024;-65
2022/08/18 07:37:34;;;;;;;78.85;61.75;;;;;;;;;;5074811;28;20058;-65
2022/08/18 07:40:19;;;;;;;76.90;61.70;;;;;;;;;;5075830;28;20025;-65
2022/08/18 07:42:45;;;;;;;72.68;60.10;;;;;;;;;;5076030;28;20107;-65
2022/08/18 07:45:11;;;;;;;80.47;60.47;;;;;;;;;;5075572;28;20453;-65
2022/08/18 07:47:57;;;;;;;77.35;61.97;;;;;;;;;;5074546;28;20024;-64
2022/08/18 07:50:24;;;;;;;78.53;61.55;;;;;;;;;;5073975;28;20071;-63
2022/08/18 07:53:06;;;;;;;74.50;61.92;;;;;;;;;;5073930;28;20025;-63
2022/08/18 07:55:34;;;;;;;81.13;63.35;;;;;;;;;;5075584;28;20025;-59
2022/08/18 07:58:06;;;;;;;74.97;61.50;;;;;;;;;;5074884;28;20021;-60
2022/08/18 08:00:32;;;;;;;75.80;59.08;;;;;;;;;;5075423;28;20020;-57
2022/08/18 08:03:18;;;;;;;75.30;58.65;;;;;;;;;;5075246;28;20096;-58
2022/08/18 08:05:47;;;;;;;76.13;62.78;;;;;;;;;;5067852;28;20040;-58
2022/08/18 08:08:13;;;;;;;76.03;59.88;;;;;;;;;;5074826;28;20021;-59
2022/08/18 08:10:43;;;;;;;73.90;61.00;;;;;;;;;;5075218;28;20028;-59
2022/08/18 08:13:16;;;;;;;79.38;61.63;;;;;;;;;;5075118;28;20032;-59
2022/08/18 08:15:48;;;;;;;77.07;59.47;;;;;;;;;;5075483;28;20562;-57
2022/08/18 08:18:23;;;;;;;76.75;59.65;;;;;;;;;;5073036;28;20042;-57
2022/08/18 08:20:58;;;;;;;81.28;63.97;;;;;;;;;;5075218;28;20111;-59
2022/08/18 08:23:35;;;;;;;81.28;60.90;;;;;;;;;;5075037;28;20388;-59
2022/08/18 08:26:13;;;;;;;74.47;60.65;;;;;;;;;;5074969;28;20432;-58
2022/08/18 08:29:03;;;;;;;75.35;58.90;;;;;;;;;;5074027;28;20059;-58
2022/08/18 08:31:41;;;;;;;70.43;55.00;;;;;;;;;;5082340;28;20505;-59
2022/08/18 08:34:11;;;;;;;67.70;56.00;;;;;;;;;;5073830;28;20035;-59
2022/08/18 08:36:40;;;;;;;66.47;52.65;;;;;;;;;;5064141;28;20031;-57
2022/08/18 08:39:10;;;;;;;66.63;53.35;;;;;;;;;;5064971;28;20024;-57
2022/08/18 08:41:42;;;;;;;68.15;54.53;;;;;;;;;;5063704;28;20493;-57
2022/08/18 08:44:17;;;;;;;67.05;53.95;;;;;;;;;;5063413;28;20017;-57
2022/08/18 08:47:04;;;;;;;62.90;51.90;;;;;;;;;;5059971;28;20473;-59
2022/08/18 08:49:42;;;;;;;65.75;51.83;;;;;;;;;;5062033;28;20021;-58
2022/08/18 08:52:11;;;;;;;59.83;48.10;;;;;;;;;;5062895;28;20036;-58
2022/08/18 08:54:49;;;;;;;62.70;51.03;;;;;;;;;;5063787;28;20036;-58
2022/08/18 08:57:17;;;;;;;61.42;50.00;;;;;;;;;;5060672;28;20035;-57
2022/08/18 08:59:45;;;;;;;58.88;51.35;;;;;;;;;;5068714;28;20059;-57
2022/08/18 09:02:21;;;;;;;53.28;47.47;;;;;;;;;;5073958;28;20370;-58
2022/08/18 09:04:52;;;;;;;57.55;50.40;;;;;;;;;;5074304;28;20040;-54
2022/08/18 09:07:19;;;;;;;62.03;50.65;;;;;;;;;;5073562;28;20025;-60
2022/08/18 09:09:48;;;;;;;59.35;49.40;;;;;;;;;;5074160;28;20384;-59
2022/08/18 09:12:14;;;;;;;52.80;42.85;;;;;;;;;;5071201;28;20126;-60
2022/08/18 09:15:03;;;;;;;49.92;43.15;;;;;;;;;;5072319;28;20103;-60
2022/08/18 09:17:29;;;;;;;;;;;;;;;;;;5071310;28;20036;-59
2022/08/18 09:20:10;;;;;;;43.85;37.70;;;;;;;;;;5070273;28;19905;-56
2022/08/18 09:22:42;;;;;;;41.45;37.05;;;;;;;;;;5070689;28;20024;-60
2022/08/18 09:25:10;;;;;;;38.75;34.58;;;;;;;;;;5070608;28;20508;-59
2022/08/18 09:27:43;;;;;;;40.20;35.97;;;;;;;;;;5072117;28;20048;-60
2022/08/18 09:30:28;;;;;;;37.83;32.92;;;;;;;;;;5073711;28;20032;-59
2022/08/18 09:32:56;;;;;;;36.38;32.53;;;;;;;;;;5071670;28;20025;-59
2022/08/18 09:35:45;;;;;;;35.28;31.50;;;;;;;;;;5073525;28;20504;-60
2022/08/18 09:44:10;;;;;;;38.00;32.50;;;;;;;;;;5073707;28;20063;-59
2022/08/18 09:46:42;;;;;;;36.00;32.35;;;;;;;;;;5073426;28;20020;-57
2022/08/18 09:49:23;;;;;;;35.35;31.58;;;;;;;;;;5072481;28;20094;-57
2022/08/18 09:51:50;;;;;;;33.58;29.98;;;;;;;;;;5071952;28;20040;-57
2022/08/18 09:54:19;;;;;;;36.30;31.80;;;;;;;;;;5073707;28;20035;-61
2022/08/18 09:56:52;;;;;;;32.85;29.45;;;;;;;;;;5073071;28;20017;-63
2022/08/18 09:59:35;;;;;;;35.75;32.05;;;;;;;;;;5072749;28;20028;-62
2022/08/18 10:02:10;;;;;;;35.42;31.77;;;;;;;;;;5072866;28;20020;-64
2022/08/18 10:04:47;;;;;;;32.53;28.85;;;;;;;;;;5072940;28;20079;-63
2022/08/18 10:07:19;;;;;;;35.37;31.77;;;;;;;;;;5072325;28;20028;-63
2022/08/18 10:10:00;;;;;;;32.13;28.77;;;;;;;;;;5072646;28;20033;-62
2022/08/18 10:12:26;;;;;;;33.88;30.45;;;;;;;;;;5072863;28;20052;-62
2022/08/18 10:15:11;;;;;;;34.30;30.67;;;;;;;;;;5073060;28;20052;-62
2022/08/18 10:17:37;;;;;;;31.75;28.38;;;;;;;;;;5071019;28;20032;-60
2022/08/18 10:20:23;;;;;;;32.80;29.40;;;;;;;;;;5072489;28;20469;-59
2022/08/18 10:22:49;;;;;;;31.95;28.60;;;;;;;;;;5072863;28;20048;-61
2022/08/18 10:25:31;;;;;;;31.77;28.27;;;;;;;;;;5071437;28;20028;-62
2022/08/18 10:27:57;;;;;;;31.58;28.35;;;;;;;;;;5071448;28;20525;-59
2022/08/18 10:30:29;;;;;;;30.55;27.25;;;;;;;;;;5072490;28;20055;-61
2022/08/18 10:32:56;;;;;;;31.58;28.38;;;;;;;;;;5072156;28;20049;-60
2022/08/18 10:35:35;;;;;;;29.05;26.05;;;;;;;;;;5072445;28;20395;-62
2022/08/18 10:38:01;;;;;;;;;;;;;;;;;;5071982;28;20020;-58
2022/08/18 10:40:27;;;;;;;30.85;27.75;;;;;;;;;;5072183;28;19916;-57
2022/08/18 10:43:00;;;;;;;30.63;27.38;;;;;;;;;;5072139;28;20074;-60
2022/08/18 10:45:36;;;;;;;34.03;27.73;;;;;;;;;;5071946;28;20021;-61
2022/08/18 10:48:08;;;;;;;29.10;26.20;;;;;;;;;;5071369;28;20555;-61
2022/08/18 10:50:46;;;;;;;31.50;28.05;;;;;;;;;;5072527;28;20051;-61
2022/08/18 10:53:17;;;;;;;29.70;26.60;;;;;;;;;;5072915;28;20024;-55
2022/08/18 10:55:50;;;;;;;29.60;26.50;;;;;;;;;;5071554;28;20119;-63
2022/08/18 10:58:34;;;;;;;29.73;26.60;;;;;;;;;;5071941;28;20055;-61
2022/08/18 11:01:00;;;;;;;29.80;26.70;;;;;;;;;;5072365;28;20092;-61
2022/08/18 11:03:45;;;;;;;28.63;25.63;;;;;;;;;;5071190;28;20032;-61
2022/08/18 11:06:16;;;;;;;28.88;25.90;;;;;;;;;;5071261;28;20153;-64
2022/08/18 11:08:43;;;;;;;28.70;25.65;;;;;;;;;;5069525;28;20028;-58
2022/08/18 11:11:10;;;;;;;27.80;24.85;;;;;;;;;;5071642;28;20381;-60
2022/08/18 11:13:44;;;;;;;27.92;24.92;;;;;;;;;;5071553;28;20471;-61
2022/08/18 11:16:29;;;;;;;29.10;26.10;;;;;;;;;;5071329;28;20449;-62
2022/08/18 11:18:57;;;;;;;27.60;24.70;;;;;;;;;;5073807;28;20059;-60
2022/08/18 11:21:39;;;;;;;29.27;25.90;;;;;;;;;;5072147;28;20020;-59
2022/08/18 11:24:19;;;;;;;30.08;26.88;;;;;;;;;;5071602;28;20039;-60
2022/08/18 11:26:45;;;;;;;28.08;25.23;;;;;;;;;;5072163;28;20025;-59
2022/08/18 11:29:31;;;;;;;29.17;26.17;;;;;;;;;;5071088;28;20028;-62
2022/08/18 11:32:16;;;;;;;28.60;25.60;;;;;;;;;;5071720;28;20076;-60
2022/08/18 11:34:44;;;;;;;28.15;25.13;;;;;;;;;;5071959;28;20020;-61
2022/08/18 11:37:22;;;;;;;26.98;24.27;;;;;;;;;;5070297;28;20494;-62
2022/08/18 11:39:50;;;;;;;27.10;24.25;;;;;;;;;;5070542;28;20364;-61
2022/08/18 11:42:17;;;;;;;26.95;24.20;;;;;;;;;;5071540;28;20025;-62
2022/08/18 11:44:45;;;;;;;27.20;24.27;;;;;;;;;;5070460;28;20029;-60
2022/08/18 11:47:20;;;;;;;25.70;23.00;;;;;;;;;;5070721;28;20056;-65
2022/08/18 11:49:52;;;;;;;26.05;23.25;;;;;;;;;;5069713;28;20037;-60
2022/08/18 11:52:23;;;;;;;27.42;24.25;;;;;;;;;;5063207;22;20493;-63
2022/08/18 11:54:49;;;;;;;24.40;21.80;;;;;;;;;;5050909;28;20415;-63
2022/08/18 11:57:53;;;;;;;24.95;22.35;;;;;;;;;;5050341;28;20025;-65
2022/08/18 12:00:35;;;;;;;25.30;22.70;;;;;;;;;;4970154;28;20515;-65
2022/08/18 12:03:04;;;;;;;27.70;24.88;;;;;;;;;;5046060;28;20048;-65
2022/08/18 12:05:40;;;;;;;26.50;22.98;;;;;;;;;;5050806;28;20034;-65
2022/08/18 12:08:16;;;;;;;25.60;22.83;;;;;;;;;;5050401;28;20021;-64
2022/08/18 12:10:42;;;;;;;26.60;23.42;;;;;;;;;;5050956;28;20051;-63
2022/08/18 12:13:08;;;;;;;27.20;24.45;;;;;;;;;;5049558;28;20041;-64
2022/08/18 12:15:35;;;;;;;26.63;23.80;;;;;;;;;;5050551;28;20053;-63
2022/08/18 12:18:02;;;;;;;25.90;23.20;;;;;;;;;;5053742;28;20083;-65
2022/08/18 12:20:28;;;;;;;25.77;23.13;;;;;;;;;;5054393;28;20025;-62
2022/08/18 12:22:55;;;;;;;24.98;22.42;;;;;;;;;;5054480;28;20132;-63
2022/08/18 12:25:21;;;;;;;26.35;23.23;;;;;;;;;;5054495;28;20485;-63
2022/08/18 12:27:48;;;;;;;25.17;22.58;;;;;;;;;;5053758;28;20154;-64
2022/08/18 12:30:14;;;;;;;24.88;22.30;;;;;;;;;;5053295;28;20040;-63
2022/08/18 12:32:40;;;;;;;25.25;22.65;;;;;;;;;;5053077;28;20029;-64
2022/08/18 12:35:09;;;;;;;25.75;23.13;;;;;;;;;;5054304;28;20477;-64
2022/08/18 12:37:35;;;;;;;26.95;24.23;;;;;;;;;;5053358;28;20504;-63
2022/08/18 12:40:01;;;;;;;26.23;23.52;;;;;;;;;;5054237;28;20443;-64
2022/08/18 12:42:27;;;;;;;26.42;23.73;;;;;;;;;;5054183;28;20021;-64
2022/08/18 12:44:53;;;;;;;26.10;23.50;;;;;;;;;;5054077;28;20489;-64
2022/08/18 12:47:21;;;;;;;26.30;23.63;;;;;;;;;;5042889;28;20109;-65
2022/08/18 12:49:47;;;;;;;26.40;23.70;;;;;;;;;;5034052;28;20033;-65
2022/08/18 12:52:13;;;;;;;24.95;22.35;;;;;;;;;;5032338;28;20037;-64
2022/08/18 12:54:42;;;;;;;25.80;23.20;;;;;;;;;;5053226;28;20028;-66
2022/08/18 12:57:11;;;;;;;25.13;22.58;;;;;;;;;;5040017;28;20033;-64
2022/08/18 12:59:37;;;;;;;25.77;23.10;;;;;;;;;;5033805;28;20032;-64
2022/08/18 13:02:03;;;;;;;25.75;23.10;;;;;;;;;;5051527;28;20028;-61
2022/08/18 13:04:29;;;;;;;25.55;23.05;;;;;;;;;;5047810;28;20025;-64
2022/08/18 13:06:57;;;;;;;25.13;22.63;;;;;;;;;;5052634;28;20021;-64
2022/08/18 13:09:23;;;;;;;24.20;21.83;;;;;;;;;;5053788;28;20059;-63
2022/08/18 13:11:50;;;;;;;25.00;22.35;;;;;;;;;;5054209;28;20024;-64
2022/08/18 13:14:16;;;;;;;26.48;22.95;;;;;;;;;;5054123;28;20029;-63
2022/08/18 13:16:43;;;;;;;24.38;21.90;;;;;;;;;;5054403;28;20029;-65
2022/08/18 13:19:09;;;;;;;23.67;21.23;;;;;;;;;;5052078;28;20021;-64
2022/08/18 13:21:36;;;;;;;24.23;21.50;;;;;;;;;;5049643;28;20079;-64
2022/08/18 13:24:02;;;;;;;24.23;21.25;;;;;;;;;;5033133;28;20056;-65
2022/08/18 13:26:30;;;;;;;23.38;20.88;;;;;;;;;;5036595;28;20539;-63
2022/08/18 13:28:56;;;;;;;23.27;20.87;;;;;;;;;;5052919;28;20032;-65
2022/08/18 13:31:23;;;;;;;23.00;20.60;;;;;;;;;;5060638;28;20291;-64
2022/08/18 13:33:49;;;;;;;23.80;21.25;;;;;;;;;;5068187;28;20037;-65
2022/08/18 13:36:15;;;;;;;24.92;22.20;;;;;;;;;;5063853;28;20117;-68
2022/08/18 13:38:42;;;;;;;26.10;23.40;;;;;;;;;;5061483;28;20147;-68
2022/08/18 13:41:09;;;;;;;26.63;23.33;;;;;;;;;;5066048;28;20070;-66
2022/08/18 13:43:37;;;;;;;26.15;23.50;;;;;;;;;;5065536;28;20447;-64
2022/08/18 13:46:04;;;;;;;25.02;22.42;;;;;;;;;;5066090;28;20032;-65
2022/08/18 13:48:30;;;;;;;24.20;21.70;;;;;;;;;;5058745;28;20039;-64
2022/08/18 13:50:57;;;;;;;24.02;21.52;;;;;;;;;;5063148;28;20033;-65
2022/08/18 13:53:24;;;;;;;25.13;22.63;;;;;;;;;;5063299;28;20091;-65
2022/08/18 13:55:50;;;;;;;24.67;22.15;;;;;;;;;;5044369;28;20030;-66
2022/08/18 13:58:17;;;;;;;26.08;23.48;;;;;;;;;;5044023;28;20081;-67
2022/08/18 14:00:43;;;;;;;25.13;22.52;;;;;;;;;;5042761;28;20022;-64
2022/08/18 14:03:09;;;;;;;23.48;21.15;;;;;;;;;;5057223;28;20025;-65
2022/08/18 14:05:35;;;;;;;22.83;20.52;;;;;;;;;;5040712;28;20029;-67
2022/08/18 14:08:02;;;;;;;22.10;19.42;;;;;;;;;;5044557;28;20025;-67
2022/08/18 14:10:29;;;;;;;21.88;19.55;;;;;;;;;;5059079;28;20032;-65
2022/08/18 14:12:56;;;;;;;22.92;20.63;;;;;;;;;;5046287;28;20033;-67
2022/08/18 14:15:22;;;;;;;21.52;19.23;;;;;;;;;;5052747;28;20113;-67
2022/08/18 14:17:49;;;;;;;21.30;19.10;;;;;;;;;;5052343;28;20520;-66
2022/08/18 14:28:30;;;;;;;20.77;18.67;;;;;;;;;;5030812;28;20175;-64
2022/08/18 14:30:57;;;;;;;21.38;19.13;;;;;;;;;;5030346;28;20450;-66
2022/08/18 14:33:25;;;;;;;20.52;18.42;;;;;;;;;;5030951;28;20486;-66
2022/08/18 14:35:51;;;;;;;21.75;19.55;;;;;;;;;;5046941;28;20029;-66
2022/08/18 14:38:17;;;;;;;20.25;18.23;;;;;;;;;;5043969;28;20517;-65
2022/08/18 14:40:44;;;;;;;20.50;18.35;;;;;;;;;;5031359;28;20025;-67
2022/08/18 14:43:12;;;;;;;20.15;18.15;;;;;;;;;;5031618;28;20413;-69
2022/08/18 14:45:38;;;;;;;20.10;17.90;;;;;;;;;;5047283;28;20040;-68
2022/08/18 14:48:05;;;;;;;20.38;18.23;;;;;;;;;;5031147;28;20276;-67
2022/08/18 14:50:31;;;;;;;20.17;17.92;;;;;;;;;;5030330;28;20444;-67
2022/08/18 14:52:57;;;;;;;20.50;18.30;;;;;;;;;;5031548;28;20038;-68
2022/08/18 14:55:23;;;;;;;20.83;18.63;;;;;;;;;;5032527;28;20449;-65
2022/08/18 14:57:49;;;;;;;21.35;18.92;;;;;;;;;;5030159;28;20489;-67
2022/08/18 15:00:17;;;;;;;20.80;18.60;;;;;;;;;;5031739;28;20022;-65
2022/08/18 15:02:44;;;;;;;21.23;19.02;;;;;;;;;;5031893;28;20059;-67
2022/08/18 15:05:10;;;;;;;20.27;18.08;;;;;;;;;;5031725;28;20061;-67
2022/08/18 15:07:36;;;;;;;19.98;17.88;;;;;;;;;;5031139;28;20033;-66
2022/08/18 15:10:07;;;;;;;21.10;18.80;;;;;;;;;;5029982;28;20029;-66
2022/08/18 15:12:33;;;;;;;21.75;19.02;;;;;;;;;;5030185;28;20042;-66
2022/08/18 15:14:59;;;;;;;21.60;19.30;;;;;;;;;;5031822;28;20021;-69
2022/08/18 15:17:26;;;;;;;21.20;18.08;;;;;;;;;;5029539;28;20091;-68
2022/08/18 15:19:52;;;;;;;21.02;18.83;;;;;;;;;;5031589;28;20024;-66